createdAt,value
2023-04-08T00:01:33.831Z,14.13
2023-04-08T00:04:00.839Z,15.00
2023-04-08T00:06:27.618Z,16.20
2023-04-08T00:08:54.149Z,15.50
2023-04-08T00:11:20.739Z,15.13
2023-04-08T00:13:47.331Z,17.10
2023-04-08T00:16:13.972Z,20.87
2023-04-08T00:18:41.396Z,18.73
2023-04-08T00:21:08.340Z,18.83
2023-04-08T00:23:34.921Z,21.03
2023-04-08T00:26:01.488Z,20.10
2023-04-08T00:28:28.075Z,21.23
2023-04-08T00:30:54.694Z,22.27
2023-04-08T00:33:21.704Z,24.97
2023-04-08T00:35:48.576Z,21.80
2023-04-08T00:38:15.182Z,22.07
2023-04-08T00:40:41.952Z,19.90
2023-04-08T00:43:08.602Z,24.83
2023-04-08T00:45:35.264Z,23.97
2023-04-08T00:48:03.573Z,22.23
2023-04-08T00:50:30.318Z,23.07
2023-04-08T00:52:57.021Z,24.47
2023-04-08T00:55:23.688Z,24.53
2023-04-08T00:57:50.314Z,27.60
2023-04-08T01:00:16.992Z,24.27
2023-04-08T01:03:10.996Z,25.23
2023-04-08T01:06:02.728Z,30.37
2023-04-08T01:08:32.255Z,27.90
2023-04-08T01:11:02.123Z,24.97
2023-04-08T01:13:34.273Z,26.63
2023-04-08T01:16:01.633Z,27.63
2023-04-08T01:18:30.614Z,28.97
2023-04-08T01:20:59.009Z,29.00
2023-04-08T01:23:43.047Z,28.40
2023-04-08T01:26:13.242Z,29.10
2023-04-08T01:28:43.788Z,26.73
2023-04-08T01:31:11.023Z,30.80
2023-04-08T01:33:37.851Z,32.10
2023-04-08T01:36:06.104Z,29.10
2023-04-08T01:38:34.380Z,31.80
2023-04-08T01:41:01.082Z,31.10
2023-04-08T01:43:28.507Z,28.87
2023-04-08T01:45:58.379Z,29.63
2023-04-08T01:48:25.846Z,30.50
2023-04-08T01:50:52.979Z,30.77
2023-04-08T01:53:19.625Z,29.77
2023-04-08T01:55:46.828Z,27.67
2023-04-08T01:58:21.113Z,27.63
2023-04-08T02:00:48.374Z,30.47
2023-04-08T02:03:18.788Z,27.27
2023-04-08T02:05:45.617Z,28.57
2023-04-08T02:08:12.624Z,28.23
2023-04-08T02:10:39.357Z,28.03
2023-04-08T02:13:06.297Z,33.73
2023-04-08T02:15:40.228Z,30.77
2023-04-08T02:18:17.068Z,28.90
2023-04-08T02:20:47.657Z,31.30
2023-04-08T02:23:17.887Z,30.27
2023-04-08T02:25:46.833Z,29.90
2023-04-08T02:28:15.676Z,33.03
2023-04-08T02:30:44.351Z,32.00
2023-04-08T02:33:14.060Z,26.93
2023-04-08T02:35:41.762Z,28.83
2023-04-08T02:38:09.727Z,29.43
2023-04-08T02:40:36.923Z,31.17
2023-04-08T02:43:03.837Z,29.80
2023-04-08T02:45:32.648Z,33.13
2023-04-08T02:48:00.744Z,31.07
2023-04-08T02:50:27.520Z,30.20
2023-04-08T02:52:54.117Z,31.23
2023-04-08T02:55:20.713Z,32.63
2023-04-08T02:57:47.865Z,33.73
2023-04-08T03:00:15.352Z,29.40
2023-04-08T03:02:42.202Z,31.20
2023-04-08T03:05:09.793Z,33.23
2023-04-08T03:07:36.672Z,30.60
2023-04-08T03:10:03.591Z,31.43
2023-04-08T03:12:31.347Z,34.37
2023-04-08T03:14:57.961Z,29.70
2023-04-08T03:17:24.582Z,32.07
2023-04-08T03:19:51.169Z,33.90
2023-04-08T03:22:17.766Z,31.63
2023-04-08T03:24:44.315Z,30.27
2023-04-08T03:27:12.558Z,34.40
2023-04-08T03:29:39.176Z,32.23
2023-04-08T03:32:05.947Z,31.53
2023-04-08T03:34:35.443Z,38.30
2023-04-08T03:37:02.426Z,31.40
2023-04-08T03:39:29.072Z,31.50
2023-04-08T03:41:55.795Z,34.10
2023-04-08T03:44:22.543Z,36.10
2023-04-08T03:46:49.081Z,32.33
2023-04-08T03:49:15.661Z,36.17
2023-04-08T03:51:42.198Z,35.67
2023-04-08T03:54:08.816Z,37.50
2023-04-08T03:56:35.372Z,31.83
2023-04-08T03:59:02.037Z,32.57
2023-04-08T04:01:29.920Z,34.50
2023-04-08T04:03:56.634Z,31.87
2023-04-08T04:06:23.324Z,35.63
2023-04-08T04:08:50.401Z,32.67
2023-04-08T04:11:17.156Z,33.83
2023-04-08T04:13:43.692Z,39.27
2023-04-08T04:16:10.271Z,34.97
2023-04-08T04:18:36.958Z,36.07
2023-04-08T04:21:06.923Z,33.57
2023-04-08T04:23:33.924Z,33.70
2023-04-08T04:26:00.498Z,31.50
2023-04-08T04:28:27.061Z,32.67
2023-04-08T04:30:55.940Z,31.07
2023-04-08T04:33:23.081Z,34.80
2023-04-08T04:35:49.736Z,31.37
2023-04-08T04:38:16.395Z,29.37
2023-04-08T04:40:44.249Z,31.57
2023-04-08T04:43:11.208Z,31.70
2023-04-08T04:45:37.813Z,33.03
2023-04-08T04:48:04.580Z,31.37
2023-04-08T04:50:31.299Z,31.63
2023-04-08T04:52:57.945Z,30.30
2023-04-08T04:55:24.610Z,31.20
2023-04-08T04:57:51.177Z,31.03
2023-04-08T05:00:17.855Z,33.13
2023-04-08T05:02:44.696Z,30.33
2023-04-08T05:05:11.647Z,29.43
2023-04-08T05:07:39.013Z,30.60
2023-04-08T05:10:06.795Z,33.23
2023-04-08T05:12:33.437Z,32.53
2023-04-08T05:15:00.619Z,34.77
2023-04-08T05:17:27.243Z,33.20
2023-04-08T05:19:53.899Z,32.57
2023-04-08T05:22:20.513Z,34.27
2023-04-08T05:24:47.130Z,33.53
2023-04-08T05:27:13.720Z,37.07
2023-04-08T05:29:40.291Z,36.60
2023-04-08T05:32:07.170Z,35.67
2023-04-08T05:34:33.806Z,36.93
2023-04-08T05:37:00.377Z,39.13
2023-04-08T05:39:26.921Z,35.17
2023-04-08T05:41:53.635Z,36.00
2023-04-08T05:44:20.191Z,35.60
2023-04-08T05:46:46.854Z,34.30
2023-04-08T05:49:13.475Z,35.53
2023-04-08T05:51:40.350Z,39.73
2023-04-08T05:54:06.983Z,37.00
2023-04-08T05:56:33.579Z,37.93
2023-04-08T05:59:00.406Z,40.27
2023-04-08T06:01:26.974Z,40.73
2023-04-08T06:03:56.151Z,39.27
2023-04-08T06:06:23.788Z,41.63
2023-04-08T06:08:50.743Z,39.00
2023-04-08T06:11:17.528Z,40.23
2023-04-08T06:13:44.272Z,41.30
2023-04-08T06:16:12.323Z,41.63
2023-04-08T06:18:39.039Z,39.37
2023-04-08T06:21:06.275Z,42.47
2023-04-08T06:23:32.895Z,44.83
2023-04-08T06:25:59.485Z,43.30
2023-04-08T06:28:26.293Z,42.63
2023-04-08T06:30:52.876Z,45.53
2023-04-08T06:33:19.432Z,41.93
2023-04-08T06:35:46.083Z,42.70
2023-04-08T06:38:12.689Z,39.93
2023-04-08T06:40:42.168Z,47.93
2023-04-08T06:43:08.772Z,40.57
2023-04-08T06:45:35.665Z,41.83
2023-04-08T06:48:02.482Z,40.23
2023-04-08T06:50:29.129Z,44.60
2023-04-08T06:52:55.760Z,41.03
2023-04-08T06:55:22.393Z,40.10
2023-04-08T06:57:48.973Z,41.27
2023-04-08T07:00:15.688Z,37.33
2023-04-08T07:02:42.507Z,39.83
2023-04-08T07:05:09.389Z,42.37
2023-04-08T07:07:36.192Z,40.67
2023-04-08T07:10:02.799Z,39.63
2023-04-08T07:12:29.465Z,39.10
2023-04-08T07:14:56.057Z,36.83
2023-04-08T07:17:22.661Z,39.53
2023-04-08T07:19:49.572Z,37.17
2023-04-08T07:22:16.318Z,39.77
2023-04-08T07:24:45.609Z,41.10
2023-04-08T07:27:12.169Z,36.10
2023-04-08T07:29:38.754Z,36.80
2023-04-08T07:32:05.444Z,38.40
2023-04-08T07:34:34.173Z,40.83
2023-04-08T07:37:01.438Z,38.20
2023-04-08T07:39:28.441Z,42.17
2023-04-08T07:41:55.031Z,39.60
2023-04-08T07:44:21.618Z,38.40
2023-04-08T07:46:51.533Z,38.00
2023-04-08T07:49:18.186Z,42.67
2023-04-08T07:51:44.779Z,42.50
2023-04-08T07:54:12.530Z,41.07
2023-04-08T07:56:40.384Z,42.73
2023-04-08T07:59:07.230Z,39.60
2023-04-08T08:01:35.724Z,40.47
2023-04-08T08:04:03.525Z,40.77
2023-04-08T08:06:33.582Z,37.90
2023-04-08T08:09:01.092Z,42.77
2023-04-08T08:11:28.041Z,39.60
2023-04-08T08:13:54.667Z,38.17
2023-04-08T08:16:21.393Z,39.40
2023-04-08T08:18:47.999Z,38.23
2023-04-08T08:21:15.187Z,37.43
2023-04-08T08:23:42.094Z,38.37
2023-04-08T08:26:10.184Z,35.53
2023-04-08T08:28:37.475Z,35.70
2023-04-08T08:31:05.861Z,38.00
2023-04-08T08:33:33.562Z,34.80
2023-04-08T08:36:00.511Z,36.67
2023-04-08T08:38:27.702Z,35.77
2023-04-08T08:40:58.990Z,34.43
2023-04-08T08:43:26.525Z,34.73
2023-04-08T08:45:53.748Z,37.37
2023-04-08T08:48:20.746Z,37.43
2023-04-08T08:50:47.776Z,33.53
2023-04-08T08:53:14.393Z,34.20
2023-04-08T08:56:09.342Z,35.27
2023-04-08T08:58:28.544Z,34.67
2023-04-08T09:00:55.390Z,33.63
2023-04-08T09:03:24.665Z,33.67
2023-04-08T09:05:52.800Z,31.73
2023-04-08T09:08:36.832Z,39.03
2023-04-08T09:11:14.876Z,34.43
2023-04-08T09:13:42.378Z,30.57
2023-04-08T09:16:14.877Z,32.23
2023-04-08T09:18:45.923Z,32.90
2023-04-08T09:21:13.774Z,32.43
2023-04-08T09:23:45.833Z,32.90
2023-04-08T09:26:17.910Z,34.40
2023-04-08T09:28:57.650Z,34.00
2023-04-08T09:31:32.238Z,39.17
2023-04-08T09:34:02.177Z,35.63
2023-04-08T09:36:28.792Z,34.03
2023-04-08T09:38:56.200Z,36.47
2023-04-08T09:41:24.243Z,31.33
2023-04-08T09:43:54.224Z,33.60
2023-04-08T09:46:32.314Z,34.50
2023-04-08T09:49:21.449Z,29.57
2023-04-08T09:52:08.265Z,32.47
2023-04-08T09:55:04.380Z,29.77
2023-04-08T09:57:41.814Z,32.83
2023-04-08T10:00:14.271Z,34.07
2023-04-08T10:03:13.665Z,32.10
2023-04-08T10:05:42.225Z,33.03
2023-04-08T10:08:09.696Z,34.40
2023-04-08T10:10:38.479Z,33.50
2023-04-08T10:13:06.677Z,30.20
2023-04-08T10:15:34.718Z,30.93
2023-04-08T10:18:07.123Z,29.93
2023-04-08T10:20:36.767Z,29.93
2023-04-08T10:23:05.443Z,31.00
2023-04-08T10:25:41.367Z,26.70
2023-04-08T10:28:11.206Z,27.47
2023-04-08T10:30:52.022Z,27.77
2023-04-08T10:33:34.763Z,28.00
2023-04-08T10:36:10.071Z,24.30
2023-04-08T10:38:37.098Z,22.30
2023-04-08T10:41:04.213Z,24.03
2023-04-08T10:43:34.897Z,25.43
2023-04-08T10:46:01.851Z,27.93
2023-04-08T10:48:31.653Z,25.43
2023-04-08T10:51:00.274Z,22.73
2023-04-08T10:53:35.407Z,22.67
2023-04-08T10:56:16.940Z,23.50
2023-04-08T10:58:54.182Z,20.83
2023-04-08T11:01:21.211Z,22.17
2023-04-08T11:03:48.588Z,22.33
2023-04-08T11:06:15.560Z,19.87
2023-04-08T11:08:42.209Z,23.90
2023-04-08T11:11:10.536Z,24.33
2023-04-08T11:13:39.419Z,22.93
2023-04-08T11:16:17.734Z,21.37
2023-04-08T11:18:45.935Z,22.40
2023-04-08T11:21:12.660Z,22.13
2023-04-08T11:23:39.246Z,24.07
2023-04-08T11:26:06.396Z,22.90
2023-04-08T11:28:33.888Z,24.20
2023-04-08T11:31:00.777Z,23.50
2023-04-08T11:33:27.394Z,25.70
2023-04-08T11:35:54.110Z,27.17
2023-04-08T11:38:24.788Z,23.77
2023-04-08T11:41:00.971Z,22.80
2023-04-08T11:43:28.599Z,21.43
2023-04-08T11:45:55.309Z,27.50
2023-04-08T11:48:21.875Z,25.33
2023-04-08T11:50:50.633Z,22.80
2023-04-08T11:53:18.414Z,23.80
2023-04-08T11:55:45.057Z,23.17
2023-04-08T11:58:11.862Z,25.47
2023-04-08T12:00:38.747Z,25.63
2023-04-08T12:03:06.488Z,23.13
2023-04-08T12:05:33.287Z,23.40
2023-04-08T12:07:59.846Z,17.83
2023-04-08T12:10:26.656Z,17.03
2023-04-08T12:12:53.340Z,18.83
2023-04-08T12:15:19.930Z,18.20
2023-04-08T12:17:46.709Z,15.83
2023-04-08T12:20:13.421Z,18.47
2023-04-08T12:22:40.379Z,17.23
2023-04-08T12:25:07.387Z,17.93
2023-04-08T12:27:34.000Z,18.37
2023-04-08T12:30:01.239Z,15.23
2023-04-08T12:32:28.305Z,14.70
2023-04-08T12:34:55.898Z,12.63
2023-04-08T12:37:22.536Z,13.80
2023-04-08T12:39:49.780Z,14.10
2023-04-08T12:42:16.559Z,15.00
2023-04-08T12:44:43.153Z,18.33
2023-04-08T12:47:09.848Z,19.47
2023-04-08T12:49:48.748Z,19.30
2023-04-08T12:52:17.191Z,20.90
2023-04-08T12:54:43.752Z,19.07
2023-04-08T12:57:10.498Z,20.30
2023-04-08T12:59:38.018Z,16.77
2023-04-08T13:02:04.701Z,18.10
2023-04-08T13:04:31.407Z,19.10
2023-04-08T13:06:59.532Z,16.53
2023-04-08T13:09:26.340Z,17.30
2023-04-08T13:11:52.930Z,16.83
2023-04-08T13:14:19.552Z,14.03
2023-04-08T13:16:46.463Z,14.87
2023-04-08T13:19:13.316Z,14.10
2023-04-08T13:21:39.935Z,13.20
2023-04-08T13:24:06.678Z,11.97
2023-04-08T13:26:33.295Z,12.73
2023-04-08T13:29:00.192Z,10.47
2023-04-08T13:31:27.336Z,11.20
2023-04-08T13:33:56.881Z,11.00
2023-04-08T13:36:24.365Z,13.50
2023-04-08T13:38:52.004Z,11.63
2023-04-08T13:41:21.017Z,11.13
2023-04-08T13:43:47.588Z,13.27
2023-04-08T13:46:14.392Z,11.27
2023-04-08T13:48:41.292Z,12.47
2023-04-08T13:51:08.358Z,11.63
2023-04-08T13:53:34.933Z,15.57
2023-04-08T13:56:01.501Z,14.53
2023-04-08T13:58:28.048Z,14.00
2023-04-08T14:00:54.698Z,13.82
2023-04-08T14:03:21.319Z,12.02
2023-04-08T14:05:48.006Z,13.07
2023-04-08T14:08:14.630Z,11.33
2023-04-08T14:10:42.067Z,12.83
2023-04-08T14:13:09.124Z,11.83
2023-04-08T14:15:36.032Z,12.40
2023-04-08T14:18:02.805Z,12.33
2023-04-08T14:20:29.974Z,12.20
2023-04-08T14:22:56.668Z,12.50
2023-04-08T14:25:23.762Z,12.10
2023-04-08T14:27:57.864Z,12.40
2023-04-08T14:30:25.750Z,11.50
2023-04-08T14:32:52.720Z,10.07
2023-04-08T14:35:19.355Z,10.60
2023-04-08T14:37:46.899Z,9.43
2023-04-08T14:40:13.563Z,10.70
2023-04-08T14:42:40.132Z,9.43
2023-04-08T14:45:07.210Z,11.00
2023-04-08T14:47:33.813Z,10.10
2023-04-08T14:50:00.409Z,10.93
2023-04-08T14:52:27.322Z,11.20
2023-04-08T14:54:53.925Z,11.93
2023-04-08T14:57:20.816Z,11.15
2023-04-08T14:59:47.501Z,10.93
2023-04-08T15:02:14.228Z,12.77
2023-04-08T15:04:41.202Z,10.37
2023-04-08T15:07:08.140Z,10.33
2023-04-08T15:09:34.972Z,10.57
2023-04-08T15:12:01.822Z,11.40
2023-04-08T15:14:28.490Z,10.97
2023-04-08T15:16:55.467Z,11.43
2023-04-08T15:19:22.152Z,9.90
2023-04-08T15:21:49.003Z,9.40
2023-04-08T15:24:15.740Z,9.93
2023-04-08T15:26:42.476Z,10.17
2023-04-08T15:29:09.395Z,9.90
2023-04-08T15:31:36.228Z,10.17
2023-04-08T15:34:03.546Z,8.97
2023-04-08T15:36:30.676Z,8.87
2023-04-08T15:38:57.286Z,9.17
2023-04-08T15:41:23.999Z,9.07
2023-04-08T15:43:51.964Z,8.67
2023-04-08T15:46:19.557Z,9.52
2023-04-08T15:48:47.098Z,11.10
2023-04-08T15:51:13.749Z,10.00
2023-04-08T15:53:41.106Z,9.83
2023-04-08T15:56:16.236Z,10.27
2023-04-08T15:58:43.668Z,10.60
2023-04-08T16:01:10.559Z,10.70
2023-04-08T16:03:37.295Z,10.50
2023-04-08T16:06:05.593Z,9.73
2023-04-08T16:08:33.448Z,9.97
2023-04-08T16:11:04.551Z,10.23
2023-04-08T16:13:31.311Z,10.18
2023-04-08T16:16:01.335Z,9.82
2023-04-08T16:18:28.461Z,11.67
2023-04-08T16:20:55.642Z,10.47
2023-04-08T16:23:22.620Z,9.30
2023-04-08T16:25:49.248Z,9.27
2023-04-08T16:28:16.252Z,8.50
2023-04-08T16:30:47.649Z,9.37
2023-04-08T16:33:14.554Z,8.93
2023-04-08T16:35:41.160Z,10.17
2023-04-08T16:38:07.772Z,10.17
2023-04-08T16:40:34.961Z,9.50
2023-04-08T16:43:02.336Z,9.57
2023-04-08T16:45:30.100Z,9.50
2023-04-08T16:47:57.398Z,9.33
2023-04-08T16:50:24.338Z,10.57
2023-04-08T16:52:50.927Z,10.47
2023-04-08T16:55:17.732Z,9.30
2023-04-08T16:57:44.356Z,9.67
2023-04-08T17:00:11.699Z,8.57
2023-04-08T17:02:38.431Z,10.17
2023-04-08T17:05:05.489Z,12.20
2023-04-08T17:07:32.388Z,10.53
2023-04-08T17:09:59.391Z,11.67
2023-04-08T17:12:26.290Z,10.67
2023-04-08T17:14:52.940Z,10.97
2023-04-08T17:17:19.527Z,13.30
2023-04-08T17:19:46.149Z,15.57
2023-04-08T17:22:12.716Z,14.60
2023-04-08T17:24:39.352Z,15.17
2023-04-08T17:27:05.958Z,17.17
2023-04-08T17:29:32.572Z,18.17
2023-04-08T17:31:59.141Z,14.87
2023-04-08T17:34:26.352Z,18.07
2023-04-08T17:36:52.898Z,17.83
2023-04-08T17:39:19.489Z,17.40
2023-04-08T17:41:46.181Z,21.80
2023-04-08T17:44:12.821Z,20.57
2023-04-08T17:46:39.395Z,19.13
2023-04-08T17:49:05.977Z,21.63
2023-04-08T17:51:32.830Z,20.47
2023-04-08T17:53:59.605Z,18.77
2023-04-08T17:56:27.746Z,20.83
2023-04-08T17:58:54.424Z,19.90
2023-04-08T18:01:22.562Z,22.23
2023-04-08T18:03:51.744Z,22.57
2023-04-08T18:06:18.672Z,21.53
2023-04-08T18:08:45.345Z,21.33
2023-04-08T18:11:12.276Z,22.17
2023-04-08T18:13:38.887Z,21.53
2023-04-08T18:16:05.827Z,20.80
2023-04-08T18:18:32.439Z,21.00
2023-04-08T18:20:59.024Z,20.20
2023-04-08T18:23:26.043Z,21.50
2023-04-08T18:25:52.741Z,21.20
2023-04-08T18:28:19.295Z,20.43
2023-04-08T18:30:51.159Z,20.43
2023-04-08T18:33:17.763Z,23.23
2023-04-08T18:35:44.380Z,20.27
2023-04-08T18:38:11.016Z,22.90
2023-04-08T18:40:37.598Z,21.60
2023-04-08T18:43:04.957Z,22.03
2023-04-08T18:45:31.946Z,22.90
2023-04-08T18:47:58.595Z,23.07
2023-04-08T18:50:25.228Z,21.43
2023-04-08T18:52:51.846Z,23.47
2023-04-08T18:55:18.482Z,23.43
2023-04-08T18:57:45.076Z,21.93
2023-04-08T19:00:12.017Z,24.50
2023-04-08T19:02:38.755Z,24.63
2023-04-08T19:05:05.893Z,24.40
2023-04-08T19:07:32.517Z,24.80
2023-04-08T19:09:59.126Z,22.87
2023-04-08T19:12:26.560Z,24.60
2023-04-08T19:14:53.884Z,24.27
2023-04-08T19:17:20.845Z,24.73
2023-04-08T19:19:47.635Z,24.87
2023-04-08T19:22:14.232Z,23.43
2023-04-08T19:24:40.852Z,25.00
2023-04-08T19:27:07.474Z,22.27
2023-04-08T19:29:34.444Z,22.23
2023-04-08T19:32:01.623Z,24.90
2023-04-08T19:34:28.397Z,22.03
2023-04-08T19:36:55.024Z,22.47
2023-04-08T19:39:23.503Z,24.20
2023-04-08T19:41:51.273Z,22.17
2023-04-08T19:44:17.854Z,22.57
2023-04-08T19:46:44.462Z,22.33
2023-04-08T19:49:11.312Z,21.03
2023-04-08T19:51:37.882Z,21.20
2023-04-08T19:54:04.576Z,20.63
2023-04-08T19:56:33.943Z,21.47
2023-04-08T19:59:01.845Z,21.27
2023-04-08T20:01:28.975Z,20.80
2023-04-08T20:03:55.724Z,19.27
2023-04-08T20:06:23.094Z,20.53
2023-04-08T20:08:51.936Z,23.20
2023-04-08T20:11:19.273Z,19.63
2023-04-08T20:13:47.076Z,20.07
2023-04-08T20:16:13.933Z,19.97
2023-04-08T20:18:40.583Z,20.67
2023-04-08T20:21:08.032Z,20.97
2023-04-08T20:23:34.736Z,21.23
2023-04-08T20:26:01.412Z,22.43
2023-04-08T20:28:28.115Z,20.50
2023-04-08T20:30:54.820Z,21.43
2023-04-08T20:33:21.425Z,20.23
2023-04-08T20:35:50.350Z,21.57
2023-04-08T20:38:17.080Z,24.43
2023-04-08T20:40:46.758Z,20.23
2023-04-08T20:43:13.386Z,22.20
2023-04-08T20:45:40.046Z,25.67
2023-04-08T20:48:07.432Z,23.40
2023-04-08T20:50:34.489Z,23.17
2023-04-08T20:53:01.391Z,24.97
2023-04-08T20:55:27.948Z,23.70
2023-04-08T20:57:54.527Z,23.13
2023-04-08T21:00:21.307Z,23.20
2023-04-08T21:02:48.306Z,24.87
2023-04-08T21:05:15.425Z,24.43
2023-04-08T21:07:44.396Z,23.20
2023-04-08T21:10:12.526Z,23.87
2023-04-08T21:12:39.153Z,25.17
2023-04-08T21:15:06.133Z,25.17
2023-04-08T21:17:32.765Z,24.57
2023-04-08T21:19:59.419Z,22.10
2023-04-08T21:22:26.072Z,22.90
2023-04-08T21:24:52.621Z,24.87
2023-04-08T21:27:19.205Z,23.60
2023-04-08T21:29:45.792Z,26.43
2023-04-08T21:32:12.489Z,24.70
2023-04-08T21:34:39.119Z,23.77
2023-04-08T21:37:06.029Z,25.50
2023-04-08T21:39:32.625Z,25.57
2023-04-08T21:41:59.267Z,28.10
2023-04-08T21:44:26.710Z,25.40
2023-04-08T21:46:54.651Z,26.17
2023-04-08T21:49:21.408Z,25.87
2023-04-08T21:51:47.980Z,24.80
2023-04-08T21:54:14.751Z,25.93
2023-04-08T21:56:42.558Z,26.17
2023-04-08T21:59:09.168Z,25.90
2023-04-08T22:01:36.009Z,29.80
2023-04-08T22:04:02.815Z,26.67
2023-04-08T22:06:32.539Z,26.10
2023-04-08T22:08:59.550Z,27.97
2023-04-08T22:11:26.154Z,25.37
2023-04-08T22:13:52.743Z,27.17
2023-04-08T22:16:19.309Z,27.40
2023-04-08T22:18:46.465Z,28.30
2023-04-08T22:21:13.065Z,25.50
2023-04-08T22:23:40.442Z,26.50
2023-04-08T22:26:07.019Z,26.80
2023-04-08T22:28:34.321Z,25.03
2023-04-08T22:31:01.341Z,26.77
2023-04-08T22:33:28.088Z,30.90
2023-04-08T22:35:57.455Z,27.30
2023-04-08T22:38:24.223Z,26.97
2023-04-08T22:40:51.075Z,26.93
2023-04-08T22:43:17.652Z,26.27
2023-04-08T22:45:44.242Z,26.93
2023-04-08T22:48:11.400Z,26.43
2023-04-08T22:50:37.935Z,28.00
2023-04-08T22:53:05.081Z,27.83
2023-04-08T22:55:32.282Z,26.17
2023-04-08T22:57:58.964Z,27.17
2023-04-08T23:00:25.922Z,29.80
2023-04-08T23:02:52.616Z,29.37
2023-04-08T23:05:19.255Z,27.40
2023-04-08T23:07:45.841Z,28.07
2023-04-08T23:10:12.484Z,27.43
2023-04-08T23:12:39.048Z,28.20
2023-04-08T23:15:06.248Z,26.40
2023-04-08T23:17:32.828Z,28.37
2023-04-08T23:19:59.411Z,29.57
2023-04-08T23:22:25.954Z,29.50
2023-04-08T23:24:52.560Z,29.17
2023-04-08T23:27:19.125Z,27.10
2023-04-08T23:29:45.695Z,26.83
2023-04-08T23:32:12.369Z,28.77
2023-04-08T23:34:38.987Z,30.67
2023-04-08T23:37:05.717Z,29.67
2023-04-08T23:39:32.489Z,28.03
2023-04-08T23:41:59.101Z,29.93
2023-04-08T23:44:25.724Z,31.97
2023-04-08T23:46:52.334Z,27.90
2023-04-08T23:49:19.786Z,30.10
2023-04-08T23:51:46.324Z,33.30
2023-04-08T23:54:12.893Z,31.93
2023-04-08T23:56:41.476Z,32.07
2023-04-08T23:59:08.076Z,30.13
